createdAt,value
2018-07-19T00:00:12.327Z,2.30
2018-07-19T00:02:42.559Z,2.60
2018-07-19T00:05:12.884Z,2.60
2018-07-19T00:07:43.208Z,2.43
2018-07-19T00:10:13.534Z,2.63
2018-07-19T00:12:43.755Z,2.77
2018-07-19T00:15:14.015Z,2.73
2018-07-19T00:17:44.286Z,2.53
2018-07-19T00:20:14.520Z,2.83
2018-07-19T00:22:44.719Z,2.93
2018-07-19T00:25:15.076Z,2.83
2018-07-19T00:27:45.281Z,3.00
2018-07-19T00:30:15.645Z,2.93
2018-07-19T00:32:45.874Z,3.00
2018-07-19T00:35:16.171Z,2.40
2018-07-19T00:37:46.458Z,2.80
2018-07-19T00:40:16.697Z,2.53
2018-07-19T00:42:46.909Z,2.53
2018-07-19T00:45:17.220Z,2.60
2018-07-19T00:47:47.457Z,2.90
2018-07-19T00:50:17.682Z,3.13
2018-07-19T00:52:47.996Z,2.80
2018-07-19T00:55:18.239Z,3.17
2018-07-19T00:57:48.494Z,3.00
2018-07-19T01:00:18.874Z,3.07
2018-07-19T01:02:49.169Z,2.70
2018-07-19T01:05:19.462Z,2.83
2018-07-19T01:07:49.728Z,3.00
2018-07-19T01:10:20.019Z,3.00
2018-07-19T01:12:50.289Z,3.67
2018-07-19T01:15:20.636Z,3.47
2018-07-19T01:17:50.886Z,3.57
2018-07-19T01:20:21.076Z,3.30
2018-07-19T01:22:51.329Z,3.30
2018-07-19T01:25:21.627Z,3.40
2018-07-19T01:27:51.877Z,3.20
2018-07-19T01:30:22.201Z,2.90
2018-07-19T01:32:52.478Z,3.13
2018-07-19T01:35:22.820Z,3.50
2018-07-19T01:37:53.095Z,3.60
2018-07-19T01:40:23.399Z,3.20
2018-07-19T01:42:54.221Z,3.50
2018-07-19T01:45:24.449Z,3.10
2018-07-19T01:47:54.748Z,3.57
2018-07-19T01:50:25.001Z,3.43
2018-07-19T01:52:55.341Z,3.50
2018-07-19T01:55:25.603Z,3.30
2018-07-19T01:57:55.909Z,3.60
2018-07-19T02:00:26.137Z,3.93
2018-07-19T02:02:56.329Z,3.53
2018-07-19T02:05:26.668Z,3.73
2018-07-19T02:07:56.920Z,3.70
2018-07-19T02:10:27.274Z,3.70
2018-07-19T02:12:57.511Z,3.33
2018-07-19T02:15:27.378Z,3.47
2018-07-19T02:17:57.662Z,3.77
2018-07-19T02:20:27.864Z,3.53
2018-07-19T02:22:58.058Z,3.77
2018-07-19T02:25:48.149Z,3.67
2018-07-19T02:28:18.377Z,3.53
2018-07-19T02:30:48.615Z,3.37
2018-07-19T02:33:18.802Z,4.03
2018-07-19T02:35:49.001Z,4.17
2018-07-19T02:38:19.278Z,3.87
2018-07-19T02:40:49.523Z,3.73
2018-07-19T02:43:19.869Z,3.90
2018-07-19T02:45:50.108Z,4.20
2018-07-19T02:48:20.356Z,3.57
2018-07-19T02:50:50.610Z,4.20
2018-07-19T02:53:20.881Z,4.07
2018-07-19T02:55:51.207Z,4.07
2018-07-19T02:58:21.369Z,4.20
2018-07-19T03:00:51.622Z,3.87
2018-07-19T03:03:21.939Z,3.90
2018-07-19T03:05:52.363Z,3.60
2018-07-19T03:08:22.865Z,3.80
2018-07-19T03:10:53.160Z,4.40
2018-07-19T03:13:23.439Z,4.40
2018-07-19T03:15:53.661Z,4.23
2018-07-19T03:18:23.898Z,4.47
2018-07-19T03:20:54.221Z,4.43
2018-07-19T03:23:24.529Z,4.10
2018-07-19T03:25:54.850Z,3.97
2018-07-19T03:28:25.329Z,4.43
2018-07-19T03:30:55.667Z,4.10
2018-07-19T03:33:25.949Z,4.23
2018-07-19T03:35:56.256Z,4.47
2018-07-19T03:38:26.554Z,4.37
2018-07-19T03:40:56.925Z,4.37
2018-07-19T03:43:27.205Z,4.53
2018-07-19T03:45:57.498Z,4.17
2018-07-19T03:48:27.745Z,3.83
2018-07-19T03:50:58.072Z,4.07
2018-07-19T03:53:28.331Z,4.10
2018-07-19T03:55:58.578Z,4.37
2018-07-19T03:58:28.969Z,4.60
2018-07-19T04:00:59.216Z,4.33
2018-07-19T04:03:29.468Z,4.20
2018-07-19T04:05:59.776Z,4.40
2018-07-19T04:08:30.041Z,4.43
2018-07-19T04:11:00.217Z,3.80
2018-07-19T04:13:30.449Z,4.23
2018-07-19T04:16:00.779Z,4.33
2018-07-19T04:18:31.119Z,4.40
2018-07-19T04:21:01.360Z,4.77
2018-07-19T04:23:31.677Z,4.00
2018-07-19T04:26:01.971Z,4.27
2018-07-19T04:28:32.274Z,4.43
2018-07-19T04:31:02.586Z,4.53
2018-07-19T04:33:32.459Z,4.03
2018-07-19T04:36:02.753Z,4.47
2018-07-19T04:38:33.062Z,4.47
2018-07-19T04:41:03.339Z,4.80
2018-07-19T04:43:33.621Z,4.30
2018-07-19T04:46:03.937Z,4.40
2018-07-19T04:48:34.252Z,3.70
2018-07-19T04:51:04.598Z,4.60
2018-07-19T04:53:34.831Z,4.80
2018-07-19T04:56:05.179Z,4.10
2018-07-19T04:58:35.418Z,4.80
2018-07-19T05:01:05.803Z,4.40
2018-07-19T05:03:36.123Z,4.53
2018-07-19T05:06:06.519Z,4.63
2018-07-19T05:08:36.868Z,4.63
2018-07-19T05:11:07.188Z,4.40
2018-07-19T05:13:37.541Z,6.00
2018-07-19T05:16:07.880Z,4.90
2018-07-19T05:18:38.146Z,4.50
2018-07-19T05:21:08.476Z,4.10
2018-07-19T05:23:38.813Z,4.53
2018-07-19T05:26:09.220Z,4.33
2018-07-19T05:28:39.467Z,4.23
2018-07-19T05:31:09.768Z,4.40
2018-07-19T05:33:40.098Z,4.43
2018-07-19T05:36:10.950Z,4.03
2018-07-19T05:38:41.381Z,4.60
2018-07-19T05:41:11.678Z,4.50
2018-07-19T05:43:41.972Z,4.20
2018-07-19T05:46:12.270Z,4.47
2018-07-19T05:48:42.639Z,4.00
2018-07-19T05:51:13.016Z,4.10
2018-07-19T05:53:43.299Z,4.50
2018-07-19T05:56:13.539Z,5.07
2018-07-19T05:58:43.819Z,4.37
2018-07-19T06:01:13.670Z,4.60
2018-07-19T06:03:44.075Z,4.27
2018-07-19T06:06:14.359Z,4.17
2018-07-19T06:08:44.698Z,4.00
2018-07-19T06:11:15.010Z,4.00
2018-07-19T06:13:45.291Z,4.10
2018-07-19T06:16:15.600Z,3.97
2018-07-19T06:18:45.803Z,4.10
2018-07-19T06:21:16.134Z,4.70
2018-07-19T06:23:46.330Z,4.23
2018-07-19T06:26:16.610Z,4.30
2018-07-19T06:28:46.876Z,4.20
2018-07-19T06:31:17.292Z,4.50
2018-07-19T06:33:47.540Z,4.10
2018-07-19T06:36:17.950Z,3.80
2018-07-19T06:38:48.251Z,4.00
2018-07-19T06:41:18.644Z,4.23
2018-07-19T06:43:48.933Z,4.60
2018-07-19T06:46:19.274Z,4.77
2018-07-19T06:48:49.548Z,4.40
2018-07-19T06:51:19.765Z,4.27
2018-07-19T06:53:50.189Z,4.50
2018-07-19T06:56:20.445Z,4.17
2018-07-19T06:58:50.749Z,4.27
2018-07-19T07:01:21.047Z,4.47
2018-07-19T07:03:51.415Z,3.63
2018-07-19T07:06:21.696Z,3.67
2018-07-19T07:08:51.930Z,3.53
2018-07-19T07:11:22.361Z,3.20
2018-07-19T07:13:52.661Z,3.80
2018-07-19T07:16:22.979Z,3.53
2018-07-19T07:18:53.288Z,3.17
2018-07-19T07:21:23.150Z,3.53
2018-07-19T07:23:53.403Z,3.27
2018-07-19T07:26:23.635Z,3.67
2018-07-19T07:28:53.878Z,3.33
2018-07-19T07:31:24.212Z,3.37
2018-07-19T07:33:54.581Z,3.20
2018-07-19T07:36:24.877Z,3.08
2018-07-19T07:38:55.220Z,2.63
2018-07-19T07:41:25.528Z,2.93
2018-07-19T07:43:55.840Z,2.50
2018-07-19T07:46:26.214Z,2.90
2018-07-19T07:48:56.500Z,3.30
2018-07-19T07:51:26.771Z,3.27
2018-07-19T07:53:57.074Z,3.12
2018-07-19T07:56:27.435Z,2.72
2018-07-19T07:58:57.758Z,3.30
2018-07-19T08:01:28.021Z,3.10
2018-07-19T08:03:58.323Z,3.05
2018-07-19T08:06:28.190Z,2.98
2018-07-19T08:08:58.507Z,2.55
2018-07-19T08:11:28.913Z,2.65
2018-07-19T08:13:59.148Z,2.60
2018-07-19T08:16:29.503Z,2.70
2018-07-19T08:18:59.660Z,2.45
2018-07-19T08:21:30.040Z,2.25
2018-07-19T08:24:00.435Z,2.37
2018-07-19T08:26:30.829Z,2.12
2018-07-19T08:29:01.203Z,2.05
2018-07-19T08:31:31.439Z,2.12
2018-07-19T08:34:01.758Z,2.20
2018-07-19T08:36:32.103Z,2.10
2018-07-19T08:39:02.478Z,2.22
2018-07-19T08:41:32.755Z,2.05
2018-07-19T08:44:03.030Z,1.98
2018-07-19T08:46:33.358Z,1.90
2018-07-19T08:49:03.334Z,2.15
2018-07-19T08:51:33.749Z,2.20
2018-07-19T08:54:04.117Z,2.17
2018-07-19T08:56:34.496Z,2.55
2018-07-19T08:59:04.754Z,2.27
2018-07-19T09:01:35.062Z,2.35
2018-07-19T09:04:05.420Z,2.22
2018-07-19T09:06:35.642Z,1.92
2018-07-19T09:09:08.624Z,2.17
2018-07-19T09:11:38.959Z,2.00
2018-07-19T09:14:09.375Z,2.05
2018-07-19T09:16:39.602Z,2.30
2018-07-19T09:19:09.828Z,2.25
2018-07-19T09:21:40.125Z,2.20
2018-07-19T09:24:10.470Z,1.98
2018-07-19T09:26:40.750Z,2.05
2018-07-19T09:29:11.062Z,2.10
2018-07-19T09:31:41.436Z,2.08
2018-07-19T09:34:11.737Z,2.30
2018-07-19T09:36:42.117Z,2.33
2018-07-19T09:39:13.397Z,3.25
2018-07-19T09:41:44.416Z,2.40
2018-07-19T09:44:14.742Z,2.40
2018-07-19T09:46:45.057Z,2.20
2018-07-19T09:49:15.426Z,2.00
2018-07-19T09:51:45.702Z,2.20
2018-07-19T09:54:57.035Z,2.22
2018-07-19T09:57:28.371Z,2.42
2018-07-19T09:59:58.689Z,1.90
2018-07-19T10:02:29.676Z,2.35
2018-07-19T10:05:00.537Z,2.40
2018-07-19T10:07:30.856Z,2.27
2018-07-19T10:10:01.213Z,2.33
2018-07-19T10:12:31.495Z,2.77
2018-07-19T10:15:01.855Z,2.62
2018-07-19T10:17:32.201Z,2.55
2018-07-19T10:20:02.524Z,2.27
2018-07-19T10:22:33.138Z,2.30
2018-07-19T10:25:03.502Z,2.25
2018-07-19T10:27:33.778Z,2.27
2018-07-19T10:30:04.209Z,2.50
2018-07-19T10:32:35.285Z,2.10
2018-07-19T10:35:05.919Z,2.45
2018-07-19T10:37:36.234Z,2.52
2018-07-19T10:40:06.537Z,2.30
2018-07-19T10:42:36.963Z,2.60
2018-07-19T10:45:08.518Z,2.35
2018-07-19T10:47:39.222Z,2.60
2018-07-19T10:50:09.808Z,2.65
2018-07-19T10:52:40.049Z,2.27
2018-07-19T10:55:10.435Z,2.40
2018-07-19T10:57:41.308Z,2.55
2018-07-19T11:00:11.898Z,2.50
2018-07-19T11:02:42.249Z,3.22
2018-07-19T11:05:12.698Z,2.55
2018-07-19T11:07:43.749Z,2.52
2018-07-19T11:10:14.314Z,2.35
2018-07-19T11:12:44.542Z,2.70
2018-07-19T11:15:15.123Z,2.60
2018-07-19T11:17:45.382Z,2.70
2018-07-19T11:20:15.989Z,2.45
2018-07-19T11:22:47.060Z,2.17
2018-07-19T11:25:17.630Z,2.50
2018-07-19T11:27:48.361Z,2.27
2018-07-19T11:30:18.669Z,3.05
2018-07-19T11:32:49.238Z,2.45
2018-07-19T11:35:20.147Z,2.42
2018-07-19T11:37:50.541Z,2.70
2018-07-19T11:40:21.409Z,2.60
2018-07-19T11:42:51.825Z,2.40
2018-07-19T11:45:22.558Z,2.50
2018-07-19T11:47:53.182Z,2.65
2018-07-19T11:50:24.128Z,2.65
2018-07-19T11:52:54.387Z,2.60
2018-07-19T11:55:24.732Z,2.90
2018-07-19T11:57:55.160Z,2.55
2018-07-19T12:00:25.948Z,2.60
2018-07-19T12:02:56.884Z,2.47
2018-07-19T12:05:27.237Z,2.87
2018-07-19T12:07:57.489Z,2.80
2018-07-19T12:10:28.176Z,3.17
2018-07-19T12:12:58.880Z,2.95
2018-07-19T12:15:29.910Z,2.75
2018-07-19T12:18:00.647Z,2.80
2018-07-19T12:20:31.181Z,2.85
2018-07-19T12:23:02.205Z,2.47
2018-07-19T12:25:35.381Z,3.08
2018-07-19T12:28:06.095Z,3.45
2018-07-19T12:30:36.447Z,2.92
2018-07-19T12:33:06.809Z,2.70
2018-07-19T12:35:37.118Z,2.67
2018-07-19T12:38:07.595Z,3.05
2018-07-19T12:40:38.208Z,2.60
2018-07-19T12:43:08.531Z,2.83
2018-07-19T12:45:38.898Z,2.42
2018-07-19T12:48:09.263Z,3.00
2018-07-19T12:50:39.687Z,3.10
2018-07-19T12:53:10.057Z,2.83
2018-07-19T12:55:40.488Z,2.55
2018-07-19T12:58:10.905Z,2.80
2018-07-19T13:00:41.338Z,2.85
2018-07-19T13:03:11.625Z,2.60
2018-07-19T13:05:41.999Z,2.58
2018-07-19T13:08:12.239Z,3.10
2018-07-19T13:10:42.564Z,2.87
2018-07-19T13:13:12.888Z,4.90
2018-07-19T13:15:44.581Z,3.20
2018-07-19T13:18:14.866Z,2.70
2018-07-19T13:20:45.220Z,2.70
2018-07-19T13:23:18.380Z,2.75
2018-07-19T13:25:48.749Z,2.95
2018-07-19T13:28:19.222Z,2.75
2018-07-19T13:30:49.670Z,2.83
2018-07-19T13:33:20.098Z,3.37
2018-07-19T13:35:50.583Z,2.87
2018-07-19T13:38:21.018Z,2.60
2018-07-19T13:40:52.138Z,2.25
2018-07-19T13:43:22.448Z,3.10
2018-07-19T13:45:52.301Z,2.80
2018-07-19T13:48:22.663Z,2.80
2018-07-19T13:50:53.048Z,2.92
2018-07-19T13:53:41.459Z,2.98
2018-07-19T13:56:11.923Z,2.70
2018-07-19T13:58:42.288Z,2.52
2018-07-19T14:01:12.656Z,2.75
2018-07-19T14:03:43.107Z,2.70
2018-07-19T14:06:13.429Z,2.95
2018-07-19T14:08:43.808Z,2.42
2018-07-19T14:11:14.218Z,2.90
2018-07-19T14:13:44.552Z,2.70
2018-07-19T14:16:14.949Z,2.77
2018-07-19T14:18:45.271Z,3.10
2018-07-19T14:21:15.569Z,2.95
2018-07-19T14:23:45.921Z,3.00
2018-07-19T14:26:16.438Z,2.52
2018-07-19T14:28:46.934Z,3.15
2018-07-19T14:31:17.279Z,2.62
2018-07-19T14:33:47.662Z,3.10
2018-07-19T14:36:18.007Z,3.00
2018-07-19T14:38:48.412Z,2.90
2018-07-19T14:41:18.847Z,3.10
2018-07-19T14:43:49.240Z,3.00
2018-07-19T14:46:19.805Z,3.00
2018-07-19T14:48:49.750Z,3.02
2018-07-19T14:51:20.211Z,2.70
2018-07-19T14:53:50.629Z,2.80
2018-07-19T14:56:21.037Z,2.90
2018-07-19T14:58:51.609Z,2.90
2018-07-19T15:01:22.074Z,2.77
2018-07-19T15:03:52.406Z,2.47
2018-07-19T15:06:22.713Z,3.05
2018-07-19T15:08:53.069Z,3.50
2018-07-19T15:11:23.513Z,2.77
2018-07-19T15:13:53.922Z,2.90
2018-07-19T15:16:24.314Z,3.20
2018-07-19T15:18:54.677Z,2.87
2018-07-19T15:21:25.015Z,2.72
2018-07-19T15:23:55.375Z,2.70
2018-07-19T15:26:25.764Z,3.12
2018-07-19T15:28:56.153Z,2.92
2018-07-19T15:31:26.550Z,2.85
2018-07-19T15:33:56.948Z,2.92
2018-07-19T15:36:27.407Z,2.75
2018-07-19T15:38:57.835Z,3.15
2018-07-19T15:41:28.539Z,2.85
2018-07-19T15:43:58.984Z,2.98
2018-07-19T15:46:29.379Z,3.62
2018-07-19T15:48:59.819Z,3.00
2018-07-19T15:51:30.249Z,2.80
2018-07-19T15:54:00.610Z,3.22
2018-07-19T15:56:31.108Z,3.20
2018-07-19T15:59:01.457Z,2.87
2018-07-19T16:01:31.878Z,3.60
2018-07-19T16:04:02.337Z,3.20
2018-07-19T16:06:32.666Z,3.33
2018-07-19T16:09:03.789Z,3.02
2018-07-19T16:11:34.120Z,3.12
2018-07-19T16:14:04.541Z,2.83
2018-07-19T16:16:35.091Z,2.62
2018-07-19T16:19:05.612Z,3.35
2018-07-19T16:21:36.092Z,3.40
2018-07-19T16:24:06.661Z,3.08
2018-07-19T16:26:37.085Z,3.40
2018-07-19T16:29:07.449Z,3.87
2018-07-19T16:31:37.777Z,3.20
2018-07-19T16:34:08.176Z,3.35
2018-07-19T16:36:38.556Z,3.22
2018-07-19T16:39:10.812Z,3.33
2018-07-19T16:41:41.168Z,3.30
2018-07-19T16:44:11.507Z,3.45
2018-07-19T16:46:41.862Z,3.37
2018-07-19T16:49:12.256Z,3.00
2018-07-19T16:51:42.648Z,3.72
2018-07-19T16:54:13.015Z,3.35
2018-07-19T16:56:43.350Z,3.30
2018-07-19T16:59:13.745Z,3.00
2018-07-19T17:01:44.096Z,4.12
2018-07-19T17:04:14.419Z,3.12
2018-07-19T17:06:46.790Z,3.42
2018-07-19T17:09:17.207Z,3.37
2018-07-19T17:11:47.540Z,3.75
2018-07-19T17:14:17.946Z,3.08
2018-07-19T17:16:48.235Z,3.30
2018-07-19T17:19:18.587Z,3.50
2018-07-19T17:21:48.898Z,3.15
2018-07-19T17:24:19.142Z,2.85
2018-07-19T17:26:49.424Z,3.37
2018-07-19T17:29:19.764Z,3.50
2018-07-19T17:31:50.018Z,3.50
2018-07-19T17:34:20.344Z,3.30
2018-07-19T17:36:50.711Z,3.20
2018-07-19T17:39:21.087Z,3.75
2018-07-19T17:41:51.459Z,3.50
2018-07-19T17:44:21.284Z,3.70
2018-07-19T17:46:51.547Z,3.50
2018-07-19T17:49:21.799Z,3.90
2018-07-19T17:51:52.114Z,3.70
2018-07-19T17:54:22.429Z,3.33
2018-07-19T17:56:52.754Z,3.92
2018-07-19T17:59:23.251Z,3.60
2018-07-19T18:01:53.517Z,3.58
2018-07-19T18:04:23.865Z,3.80
2018-07-19T18:06:54.205Z,3.80
2018-07-19T18:09:24.557Z,2.98
2018-07-19T18:11:54.901Z,3.70
2018-07-19T18:14:25.100Z,3.27
2018-07-19T18:16:55.397Z,3.35
2018-07-19T18:19:25.666Z,3.17
2018-07-19T18:21:55.973Z,3.20
2018-07-19T18:24:26.277Z,3.33
2018-07-19T18:26:56.620Z,3.10
2018-07-19T18:29:26.867Z,3.25
2018-07-19T18:31:57.136Z,3.20
2018-07-19T18:34:27.476Z,3.62
2018-07-19T18:36:57.840Z,3.40
2018-07-19T18:39:28.059Z,3.40
2018-07-19T18:41:58.371Z,3.27
2018-07-19T18:44:28.620Z,3.50
2018-07-19T18:46:58.956Z,3.25
2018-07-19T18:49:29.143Z,3.25
2018-07-19T18:51:59.496Z,2.92
2018-07-19T18:54:29.771Z,2.90
2018-07-19T18:56:59.968Z,3.30
2018-07-19T18:59:30.380Z,3.22
2018-07-19T19:02:00.602Z,2.87
2018-07-19T19:04:31.422Z,3.00
2018-07-19T19:07:01.629Z,3.08
2018-07-19T19:09:31.945Z,3.20
2018-07-19T19:12:02.246Z,2.98
2018-07-19T19:14:32.580Z,2.90
2018-07-19T19:17:02.854Z,2.70
2018-07-19T19:19:34.745Z,3.12
2018-07-19T19:22:05.986Z,3.00
2018-07-19T19:24:36.267Z,2.85
2018-07-19T19:27:06.839Z,3.58
2018-07-19T19:29:37.097Z,2.75
2018-07-19T19:32:07.379Z,2.95
2018-07-19T19:34:37.604Z,2.95
2018-07-19T19:37:07.988Z,3.77
2018-07-19T19:39:38.273Z,3.20
2018-07-19T19:42:08.799Z,3.47
2018-07-19T19:44:39.027Z,3.40
2018-07-19T19:47:09.303Z,3.20
2018-07-19T19:49:39.550Z,3.50
2018-07-19T19:52:09.375Z,3.27
2018-07-19T19:54:39.586Z,3.05
2018-07-19T19:57:09.876Z,3.47
2018-07-19T19:59:40.299Z,3.30
2018-07-19T20:02:10.602Z,3.40
2018-07-19T20:04:40.983Z,3.72
2018-07-19T20:07:11.485Z,3.58
2018-07-19T20:09:41.735Z,4.00
2018-07-19T20:12:12.036Z,4.10
2018-07-19T20:14:42.298Z,4.25
2018-07-19T20:17:12.757Z,3.72
2018-07-19T20:19:43.146Z,3.55
2018-07-19T20:22:13.488Z,3.33
2018-07-19T20:24:43.921Z,3.22
2018-07-19T20:27:14.717Z,3.30
2018-07-19T20:29:44.466Z,3.40
2018-07-19T20:32:14.755Z,3.62
2018-07-19T20:34:45.082Z,3.70
2018-07-19T20:37:15.457Z,3.40
2018-07-19T20:39:45.752Z,3.42
2018-07-19T20:42:16.133Z,3.35
2018-07-19T20:44:46.408Z,3.52
2018-07-19T20:47:16.918Z,3.50
2018-07-19T20:49:47.144Z,3.67
2018-07-19T20:52:17.528Z,3.70
2018-07-19T20:54:47.955Z,3.55
2018-07-19T20:57:18.237Z,3.52
2018-07-19T20:59:48.541Z,3.75
2018-07-19T21:02:18.943Z,3.30
2018-07-19T21:04:49.227Z,3.50
2018-07-19T21:07:19.497Z,3.30
2018-07-19T21:09:49.211Z,3.42
2018-07-19T21:12:19.520Z,3.52
2018-07-19T21:14:49.824Z,3.30
2018-07-19T21:17:20.239Z,3.80
2018-07-19T21:19:50.465Z,4.03
2018-07-19T21:22:20.676Z,4.37
2018-07-19T21:24:50.859Z,4.28
2018-07-19T21:27:21.118Z,4.33
2018-07-19T21:29:51.470Z,4.35
2018-07-19T21:32:21.842Z,4.40
2018-07-19T21:34:52.101Z,4.95
2018-07-19T21:37:22.401Z,4.72
2018-07-19T21:39:52.663Z,5.22
2018-07-19T21:42:22.974Z,4.85
2018-07-19T21:44:53.319Z,4.90
2018-07-19T21:47:23.929Z,5.33
2018-07-19T21:49:54.239Z,5.90
2018-07-19T21:52:24.500Z,5.28
2018-07-19T21:54:54.839Z,5.70
2018-07-19T21:57:25.076Z,5.50
2018-07-19T21:59:55.335Z,5.65
2018-07-19T22:02:25.628Z,5.42
2018-07-19T22:04:55.948Z,5.15
2018-07-19T22:07:26.162Z,5.15
2018-07-19T22:09:56.422Z,5.20
2018-07-19T22:12:26.648Z,4.60
2018-07-19T22:14:56.909Z,4.47
2018-07-19T22:17:27.168Z,5.17
2018-07-19T22:19:57.443Z,5.05
2018-07-19T22:22:27.765Z,5.03
2018-07-19T22:24:58.019Z,4.30
2018-07-19T22:27:28.356Z,4.70
2018-07-19T22:29:58.587Z,4.65
2018-07-19T22:32:28.747Z,4.70
2018-07-19T22:34:58.899Z,4.87
2018-07-19T22:37:29.147Z,4.70
2018-07-19T22:39:59.443Z,5.20
2018-07-19T22:42:29.876Z,4.85
2018-07-19T22:45:00.262Z,5.20
2018-07-19T22:47:30.569Z,5.47
2018-07-19T22:50:00.897Z,5.67
2018-07-19T22:52:31.175Z,5.53
2018-07-19T22:55:01.361Z,5.37
2018-07-19T22:57:31.641Z,5.83
2018-07-19T23:00:01.863Z,6.22
2018-07-19T23:02:32.203Z,5.37
2018-07-19T23:05:02.561Z,6.22
2018-07-19T23:07:32.911Z,6.03
2018-07-19T23:10:03.244Z,6.40
2018-07-19T23:12:33.564Z,6.50
2018-07-19T23:15:03.957Z,6.42
2018-07-19T23:17:34.289Z,6.55
2018-07-19T23:20:04.644Z,6.72
2018-07-19T23:22:34.899Z,8.00
2018-07-19T23:25:05.257Z,6.87
2018-07-19T23:27:35.624Z,6.12
2018-07-19T23:30:06.136Z,5.47
2018-07-19T23:32:36.421Z,5.50
2018-07-19T23:35:06.789Z,6.17
2018-07-19T23:37:38.745Z,6.58
2018-07-19T23:40:17.559Z,6.17
2018-07-19T23:42:53.258Z,6.27
2018-07-19T23:45:32.425Z,6.35
2018-07-19T23:48:04.828Z,7.12
2018-07-19T23:50:35.030Z,7.23
2018-07-19T23:53:05.336Z,6.57
2018-07-19T23:55:35.930Z,6.37
2018-07-19T23:58:06.922Z,7.13
